createdAt,value
2019-02-06T00:01:06.968Z,3.20
2019-02-06T00:03:35.878Z,3.10
2019-02-06T00:06:05.754Z,3.10
2019-02-06T00:08:34.725Z,3.10
2019-02-06T00:11:03.761Z,3.10
2019-02-06T00:13:33.027Z,3.20
2019-02-06T00:16:02.076Z,3.20
2019-02-06T00:18:31.174Z,3.20
2019-02-06T00:21:00.051Z,3.20
2019-02-06T00:23:28.863Z,3.20
2019-02-06T00:25:57.747Z,3.20
2019-02-06T00:28:26.647Z,3.10
2019-02-06T00:30:55.687Z,3.10
2019-02-06T00:33:24.581Z,3.00
2019-02-06T00:35:53.383Z,2.80
2019-02-06T00:38:22.525Z,2.60
2019-02-06T00:40:51.572Z,2.60
2019-02-06T00:43:20.527Z,2.50
2019-02-06T00:45:49.564Z,2.40
2019-02-06T00:48:18.350Z,2.30
2019-02-06T00:50:47.335Z,2.30
2019-02-06T00:53:16.198Z,2.30
2019-02-06T00:55:45.118Z,2.20
2019-02-06T00:58:14.006Z,2.20
2019-02-06T01:00:43.356Z,2.10
2019-02-06T01:03:12.303Z,2.10
2019-02-06T01:05:41.503Z,2.00
2019-02-06T01:08:11.032Z,1.90
2019-02-06T01:10:39.994Z,1.90
2019-02-06T01:13:08.880Z,1.90
2019-02-06T01:15:38.143Z,1.90
2019-02-06T01:18:07.171Z,1.90
2019-02-06T01:20:36.082Z,2.00
2019-02-06T01:23:05.330Z,2.10
2019-02-06T01:25:34.227Z,2.10
2019-02-06T01:28:03.278Z,2.10
2019-02-06T01:30:39.370Z,2.00
2019-02-06T01:33:08.318Z,1.90
2019-02-06T01:35:37.286Z,1.90
2019-02-06T01:38:06.166Z,1.90
2019-02-06T01:40:35.150Z,1.90
2019-02-06T01:43:04.110Z,1.90
2019-02-06T01:45:32.941Z,1.80
2019-02-06T01:48:01.738Z,1.80
2019-02-06T01:50:30.638Z,1.80
2019-02-06T01:52:59.440Z,1.80
2019-02-06T01:55:28.335Z,1.70
2019-02-06T01:57:57.325Z,1.70
2019-02-06T02:00:26.642Z,1.70
2019-02-06T02:02:55.806Z,1.70
2019-02-06T02:05:24.790Z,1.70
2019-02-06T02:07:53.724Z,1.70
2019-02-06T02:10:22.679Z,1.60
2019-02-06T02:12:51.537Z,1.60
2019-02-06T02:15:20.722Z,1.50
2019-02-06T02:17:49.686Z,1.50
2019-02-06T02:20:22.526Z,1.50
2019-02-06T02:22:51.481Z,1.50
2019-02-06T02:25:20.921Z,1.50
2019-02-06T02:27:49.795Z,1.50
2019-02-06T02:30:23.917Z,1.50
2019-02-06T02:32:53.083Z,1.50
2019-02-06T02:35:21.951Z,1.50
2019-02-06T02:37:50.829Z,1.50
2019-02-06T02:40:19.685Z,1.50
2019-02-06T02:42:48.819Z,1.40
2019-02-06T02:45:18.840Z,1.40
2019-02-06T02:47:48.184Z,1.40
2019-02-06T02:50:17.118Z,1.40
2019-02-06T02:52:46.022Z,1.40
2019-02-06T02:55:15.006Z,1.40
2019-02-06T02:57:44.284Z,1.30
2019-02-06T03:00:16.579Z,1.30
2019-02-06T03:02:54.853Z,1.20
2019-02-06T03:05:26.510Z,1.20
2019-02-06T03:07:55.484Z,1.10
2019-02-06T03:10:24.417Z,1.10
2019-02-06T03:12:53.222Z,1.00
2019-02-06T03:15:22.479Z,1.10
2019-02-06T03:17:51.454Z,1.10
2019-02-06T03:20:21.477Z,1.10
2019-02-06T03:22:50.355Z,1.10
2019-02-06T03:25:19.234Z,1.10
2019-02-06T03:27:48.145Z,1.10
2019-02-06T03:30:17.663Z,1.00
2019-02-06T03:32:46.790Z,1.00
2019-02-06T03:35:15.778Z,0.90
2019-02-06T03:37:44.596Z,0.90
2019-02-06T03:40:15.341Z,0.90
2019-02-06T03:42:44.660Z,0.90
2019-02-06T03:45:14.511Z,0.90
2019-02-06T03:47:43.739Z,0.90
2019-02-06T03:50:14.742Z,0.90
2019-02-06T03:52:43.754Z,0.80
2019-02-06T03:55:12.975Z,0.80
2019-02-06T03:57:53.890Z,0.80
2019-02-06T04:00:22.771Z,0.80
2019-02-06T04:02:51.760Z,0.80
2019-02-06T04:05:20.574Z,0.70
2019-02-06T04:07:49.471Z,0.70
2019-02-06T04:10:18.350Z,0.70
2019-02-06T04:12:47.323Z,0.70
2019-02-06T04:15:16.770Z,0.70
2019-02-06T04:17:45.728Z,0.80
2019-02-06T04:20:14.714Z,0.80
2019-02-06T04:22:43.919Z,0.80
2019-02-06T04:25:13.994Z,0.80
2019-02-06T04:27:42.949Z,0.80
2019-02-06T04:30:12.913Z,0.80
2019-02-06T04:32:41.812Z,0.90
2019-02-06T04:35:12.273Z,1.00
2019-02-06T04:37:41.235Z,1.10
2019-02-06T04:40:13.793Z,1.10
2019-02-06T04:42:42.850Z,1.20
2019-02-06T04:45:12.644Z,1.20
2019-02-06T04:47:41.606Z,1.20
2019-02-06T04:50:11.294Z,1.20
2019-02-06T04:52:40.326Z,1.20
2019-02-06T04:55:10.379Z,1.20
2019-02-06T04:57:39.427Z,1.20
2019-02-06T05:00:15.414Z,1.30
2019-02-06T05:02:44.366Z,1.40
2019-02-06T05:05:13.326Z,1.50
2019-02-06T05:07:42.226Z,1.40
2019-02-06T05:10:11.746Z,1.40
2019-02-06T05:12:40.687Z,1.50
2019-02-06T05:15:10.408Z,1.40
2019-02-06T05:17:39.447Z,1.50
2019-02-06T05:20:14.042Z,1.60
2019-02-06T05:22:42.858Z,1.70
2019-02-06T05:25:11.847Z,1.70
2019-02-06T05:27:40.818Z,1.80
2019-02-06T05:30:10.168Z,1.80
2019-02-06T05:32:42.830Z,1.90
2019-02-06T05:35:09.797Z,1.90
2019-02-06T05:37:38.751Z,1.90
2019-02-06T05:40:07.967Z,1.90
2019-02-06T05:42:36.967Z,1.90
2019-02-06T05:45:07.046Z,1.90
2019-02-06T05:47:35.857Z,1.90
2019-02-06T05:50:05.148Z,2.00
2019-02-06T05:52:33.970Z,2.00
2019-02-06T05:55:04.678Z,1.90
2019-02-06T05:57:33.554Z,1.90
2019-02-06T06:00:02.973Z,2.00
2019-02-06T06:02:31.786Z,2.00
2019-02-06T06:05:00.653Z,2.00
2019-02-06T06:07:29.491Z,2.00
2019-02-06T06:09:58.375Z,2.00
2019-02-06T06:12:27.198Z,2.00
2019-02-06T06:14:55.996Z,2.00
2019-02-06T06:17:25.092Z,2.00
2019-02-06T06:19:53.882Z,2.10
2019-02-06T06:22:22.714Z,2.10
2019-02-06T06:24:51.517Z,2.00
2019-02-06T06:27:20.348Z,2.00
2019-02-06T06:29:49.167Z,2.00
2019-02-06T06:32:17.990Z,2.00
2019-02-06T06:34:46.811Z,2.00
2019-02-06T06:37:15.634Z,2.00
2019-02-06T06:39:44.544Z,2.00
2019-02-06T06:42:13.496Z,2.00
2019-02-06T06:44:42.378Z,1.90
2019-02-06T06:47:11.363Z,1.90
2019-02-06T06:49:40.559Z,1.90
2019-02-06T06:52:09.447Z,1.90
2019-02-06T06:54:38.248Z,1.90
2019-02-06T06:57:07.167Z,1.90
2019-02-06T06:59:36.025Z,2.00
2019-02-06T07:02:05.426Z,2.00
2019-02-06T07:04:34.704Z,2.00
2019-02-06T07:07:03.906Z,2.10
2019-02-06T07:09:32.784Z,2.10
2019-02-06T07:12:01.622Z,2.10
2019-02-06T07:14:30.443Z,2.20
2019-02-06T07:16:59.239Z,2.20
2019-02-06T07:19:28.130Z,2.30
2019-02-06T07:21:56.933Z,2.30
2019-02-06T07:24:25.800Z,2.30
2019-02-06T07:26:54.735Z,2.30
2019-02-06T07:29:23.631Z,2.30
2019-02-06T07:31:52.443Z,2.30
2019-02-06T07:34:21.275Z,2.30
2019-02-06T07:36:50.531Z,2.30
2019-02-06T07:39:19.334Z,2.30
2019-02-06T07:41:48.202Z,2.30
2019-02-06T07:44:17.027Z,2.30
2019-02-06T07:46:45.964Z,2.30
2019-02-06T07:49:14.766Z,2.40
2019-02-06T07:51:43.594Z,2.40
2019-02-06T07:54:12.488Z,2.40
2019-02-06T07:56:41.270Z,2.40
2019-02-06T07:59:10.175Z,2.50
2019-02-06T08:01:39.125Z,2.50
2019-02-06T08:04:08.147Z,2.50
2019-02-06T08:06:37.061Z,2.60
2019-02-06T08:09:09.101Z,2.60
2019-02-06T08:11:37.912Z,2.70
2019-02-06T08:14:06.888Z,2.90
2019-02-06T08:16:35.704Z,2.90
2019-02-06T08:19:04.747Z,3.00
2019-02-06T08:21:33.701Z,3.00
2019-02-06T08:24:03.002Z,3.00
2019-02-06T08:26:32.016Z,3.10
2019-02-06T08:29:00.911Z,3.10
2019-02-06T08:31:29.771Z,3.20
2019-02-06T08:33:58.577Z,3.30
2019-02-06T08:36:27.379Z,3.30
2019-02-06T08:38:56.721Z,3.30
2019-02-06T08:41:25.622Z,3.30
2019-02-06T08:43:54.525Z,3.30
2019-02-06T08:46:23.322Z,3.40
2019-02-06T08:48:52.227Z,3.40
2019-02-06T08:51:21.021Z,3.50
2019-02-06T08:54:09.066Z,3.60
2019-02-06T08:56:38.027Z,3.60
2019-02-06T08:59:07.025Z,3.70
2019-02-06T09:01:35.962Z,3.80
2019-02-06T09:04:04.926Z,3.80
2019-02-06T09:06:34.002Z,3.90
2019-02-06T09:09:04.581Z,3.90
2019-02-06T09:11:33.468Z,4.00
2019-02-06T09:14:02.361Z,4.10
2019-02-06T09:16:31.262Z,4.10
2019-02-06T09:19:00.070Z,4.20
2019-02-06T09:21:28.966Z,4.20
2019-02-06T09:23:57.855Z,4.30
2019-02-06T09:26:26.759Z,4.30
2019-02-06T09:28:55.582Z,4.40
2019-02-06T09:31:24.399Z,4.40
2019-02-06T09:33:53.208Z,4.50
2019-02-06T09:36:22.314Z,4.60
2019-02-06T09:38:51.662Z,4.60
2019-02-06T09:41:20.486Z,4.60
2019-02-06T09:43:49.300Z,4.60
2019-02-06T09:46:18.120Z,4.60
2019-02-06T09:51:36.476Z,4.70
2019-02-06T09:54:05.434Z,4.70
2019-02-06T09:56:34.330Z,4.70
2019-02-06T09:59:03.307Z,4.70
2019-02-06T10:01:32.300Z,4.80
2019-02-06T10:04:01.178Z,4.90
2019-02-06T10:06:30.426Z,5.00
2019-02-06T10:08:59.242Z,5.10
2019-02-06T10:11:28.103Z,5.10
2019-02-06T10:13:56.990Z,5.20
2019-02-06T10:16:25.885Z,5.30
2019-02-06T10:18:54.830Z,5.50
2019-02-06T10:21:23.812Z,5.50
2019-02-06T10:23:52.851Z,5.50
2019-02-06T10:26:21.898Z,5.60
2019-02-06T10:28:50.778Z,5.60
2019-02-06T10:31:19.684Z,5.60
2019-02-06T10:33:48.567Z,5.70
2019-02-06T10:36:17.522Z,5.70
2019-02-06T10:38:46.607Z,5.70
2019-02-06T10:41:15.490Z,5.80
2019-02-06T10:43:44.447Z,5.90
2019-02-06T10:46:13.522Z,6.00
2019-02-06T10:48:43.848Z,6.10
2019-02-06T10:51:13.327Z,6.10
2019-02-06T10:53:42.586Z,6.20
2019-02-06T10:56:11.559Z,6.30
2019-02-06T10:58:40.478Z,6.40
2019-02-06T11:01:09.431Z,6.50
2019-02-06T11:07:08.171Z,6.60
2019-02-06T11:09:46.122Z,6.80
2019-02-06T11:12:07.888Z,6.90
2019-02-06T11:14:36.751Z,7.00
2019-02-06T11:17:05.635Z,7.10
2019-02-06T11:19:34.602Z,7.20
2019-02-06T11:22:03.561Z,7.30
2019-02-06T11:24:32.366Z,7.40
2019-02-06T11:27:01.346Z,7.30
2019-02-06T11:29:30.155Z,7.30
2019-02-06T11:31:59.010Z,7.40
2019-02-06T11:34:27.819Z,7.40
2019-02-06T11:36:56.603Z,7.40
2019-02-06T11:39:25.494Z,7.40
2019-02-06T11:41:54.450Z,7.40
2019-02-06T11:44:23.397Z,7.50
2019-02-06T11:46:52.278Z,7.40
2019-02-06T11:49:26.164Z,7.40
2019-02-06T11:51:55.047Z,7.40
2019-02-06T11:54:23.894Z,7.40
2019-02-06T11:56:52.729Z,7.40
2019-02-06T11:59:21.559Z,7.40
2019-02-06T12:01:52.858Z,7.30
2019-02-06T12:04:21.803Z,7.40
2019-02-06T12:06:50.590Z,7.40
2019-02-06T12:09:19.483Z,7.40
2019-02-06T12:11:48.354Z,7.50
2019-02-06T12:14:17.559Z,7.50
2019-02-06T12:16:46.516Z,7.50
2019-02-06T12:19:15.412Z,7.60
2019-02-06T12:21:44.208Z,7.60
2019-02-06T12:24:13.032Z,7.60
2019-02-06T12:26:41.894Z,7.60
2019-02-06T12:29:10.702Z,7.70
2019-02-06T12:31:39.583Z,7.60
2019-02-06T12:34:08.477Z,7.60
2019-02-06T12:36:37.351Z,7.60
2019-02-06T12:39:09.774Z,7.70
2019-02-06T12:41:38.580Z,7.70
2019-02-06T12:44:07.460Z,7.70
2019-02-06T12:46:36.487Z,7.70
2019-02-06T12:49:06.079Z,7.70
2019-02-06T12:51:34.965Z,7.70
2019-02-06T12:54:03.960Z,7.70
2019-02-06T12:56:32.842Z,7.70
2019-02-06T12:59:01.668Z,7.70
2019-02-06T13:01:30.575Z,7.80
2019-02-06T13:03:59.458Z,7.70
2019-02-06T13:06:28.263Z,7.70
2019-02-06T13:08:57.057Z,7.80
2019-02-06T13:11:25.943Z,7.80
2019-02-06T13:13:54.754Z,7.80
2019-02-06T13:16:23.634Z,7.80
2019-02-06T13:18:52.438Z,7.80
2019-02-06T13:21:21.514Z,7.80
2019-02-06T13:23:50.343Z,7.80
2019-02-06T13:26:19.232Z,7.90
2019-02-06T13:28:48.195Z,7.80
2019-02-06T13:31:17.023Z,7.80
2019-02-06T13:33:45.920Z,7.80
2019-02-06T13:36:15.350Z,7.80
2019-02-06T13:38:44.134Z,7.90
2019-02-06T13:41:13.007Z,7.80
2019-02-06T13:43:41.880Z,7.80
2019-02-06T13:46:10.670Z,7.80
2019-02-06T13:48:39.532Z,7.80
2019-02-06T13:51:16.458Z,7.80
2019-02-06T13:53:39.006Z,7.90
2019-02-06T13:56:07.959Z,7.90
2019-02-06T13:58:36.839Z,7.90
2019-02-06T14:01:06.136Z,8.00
2019-02-06T14:03:35.160Z,8.00
2019-02-06T14:06:04.221Z,8.10
2019-02-06T14:08:33.018Z,8.10
2019-02-06T14:11:01.903Z,8.10
2019-02-06T14:13:30.711Z,8.10
2019-02-06T14:15:59.717Z,8.20
2019-02-06T14:18:28.602Z,8.10
2019-02-06T14:20:57.612Z,8.20
2019-02-06T14:23:36.514Z,8.10
2019-02-06T14:26:41.640Z,8.10
2019-02-06T14:29:44.454Z,8.10
2019-02-06T14:32:28.413Z,8.10
2019-02-06T14:35:25.450Z,8.10
2019-02-06T14:38:24.469Z,8.00
2019-02-06T14:41:15.755Z,8.00
2019-02-06T14:44:14.517Z,8.00
2019-02-06T14:47:17.394Z,8.00
2019-02-06T14:50:20.395Z,8.10
2019-02-06T14:53:34.761Z,8.10
2019-02-06T14:56:40.710Z,8.10
2019-02-06T14:59:27.645Z,8.10
2019-02-06T15:02:52.106Z,8.10
2019-02-06T15:05:59.379Z,8.10
2019-02-06T15:08:50.695Z,8.10
2019-02-06T15:11:42.235Z,8.10
2019-02-06T15:14:52.183Z,8.10
2019-02-06T15:17:42.906Z,8.10
2019-02-06T15:20:41.823Z,8.10
2019-02-06T15:23:45.342Z,8.00
2019-02-06T15:26:21.751Z,8.00
2019-02-06T15:29:30.505Z,8.10
2019-02-06T15:32:41.311Z,8.10
2019-02-06T15:35:36.793Z,8.00
2019-02-06T15:38:43.959Z,7.90
2019-02-06T15:41:48.377Z,7.90
2019-02-06T15:44:39.659Z,7.90
2019-02-06T15:47:29.170Z,7.90
2019-02-06T15:50:27.460Z,7.90
2019-02-06T15:53:08.320Z,7.90
2019-02-06T15:56:16.251Z,7.80
2019-02-06T15:59:05.555Z,7.80
2019-02-06T16:02:24.995Z,7.70
2019-02-06T16:05:48.546Z,7.70
2019-02-06T16:08:45.055Z,7.60
2019-02-06T16:11:43.856Z,7.60
2019-02-06T16:14:51.003Z,7.60
2019-02-06T16:17:47.043Z,7.50
2019-02-06T16:20:43.451Z,7.30
2019-02-06T16:23:33.564Z,7.20
2019-02-06T16:26:35.227Z,7.20
2019-02-06T16:29:36.770Z,7.10
2019-02-06T16:33:05.137Z,7.00
2019-02-06T16:36:13.283Z,7.00
2019-02-06T16:39:06.403Z,6.80
2019-02-06T16:42:18.483Z,6.70
2019-02-06T16:45:00.725Z,6.70
2019-02-06T16:47:56.069Z,6.60
2019-02-06T16:50:41.539Z,6.60
2019-02-06T16:53:28.608Z,6.60
2019-02-06T16:56:28.846Z,6.50
2019-02-06T16:59:21.103Z,6.50
2019-02-06T17:02:27.098Z,6.50
2019-02-06T17:05:36.146Z,6.50
2019-02-06T17:08:24.131Z,6.50
2019-02-06T17:11:41.976Z,6.40
2019-02-06T17:14:47.423Z,6.40
2019-02-06T17:17:49.738Z,6.40
2019-02-06T17:20:36.327Z,6.40
2019-02-06T17:23:35.591Z,6.50
2019-02-06T17:27:00.763Z,6.50
2019-02-06T17:30:14.982Z,6.50
2019-02-06T17:33:09.579Z,6.50
2019-02-06T17:36:31.418Z,6.50
2019-02-06T17:39:24.361Z,6.50
2019-02-06T17:41:58.244Z,6.40
2019-02-06T17:44:53.939Z,6.40
2019-02-06T17:47:48.907Z,6.40
2019-02-06T17:50:46.264Z,6.40
2019-02-06T17:53:21.145Z,6.40
2019-02-06T17:55:50.080Z,6.40
2019-02-06T17:58:19.251Z,6.40
2019-02-06T18:01:18.347Z,6.30
2019-02-06T18:03:54.502Z,6.30
2019-02-06T18:06:23.767Z,6.20
2019-02-06T18:08:56.826Z,6.20
2019-02-06T18:11:23.453Z,6.20
2019-02-06T18:13:52.722Z,6.30
2019-02-06T18:16:23.050Z,6.30
2019-02-06T18:18:52.771Z,6.30
2019-02-06T18:21:21.975Z,6.30
2019-02-06T18:23:54.590Z,6.30
2019-02-06T18:26:23.779Z,6.30
2019-02-06T18:28:55.130Z,6.30
2019-02-06T18:31:24.251Z,6.30
2019-02-06T18:33:54.049Z,6.20
2019-02-06T18:36:23.940Z,6.20
2019-02-06T18:38:56.089Z,6.20
2019-02-06T18:41:25.341Z,6.10
2019-02-06T18:43:54.671Z,6.10
2019-02-06T18:46:23.786Z,6.10
2019-02-06T18:48:52.819Z,6.10
2019-02-06T18:51:21.827Z,6.10
2019-02-06T18:53:50.821Z,6.00
2019-02-06T18:56:20.049Z,6.00
2019-02-06T18:58:49.158Z,6.00
2019-02-06T19:01:18.142Z,6.00
2019-02-06T19:03:47.903Z,6.00
2019-02-06T19:06:18.903Z,6.00
2019-02-06T19:08:47.602Z,6.00
2019-02-06T19:11:16.795Z,5.90
2019-02-06T19:13:45.887Z,5.90
2019-02-06T19:16:16.021Z,5.80
2019-02-06T19:18:44.934Z,5.80
2019-02-06T19:21:14.209Z,5.80
2019-02-06T19:23:43.203Z,5.80
2019-02-06T19:26:12.071Z,5.80
2019-02-06T19:28:41.080Z,5.90
2019-02-06T19:31:10.139Z,5.90
2019-02-06T19:33:39.131Z,5.90
2019-02-06T19:36:08.142Z,5.90
2019-02-06T19:38:37.844Z,5.90
2019-02-06T19:41:07.841Z,5.90
2019-02-06T19:43:36.911Z,5.90
2019-02-06T19:46:06.142Z,5.90
2019-02-06T19:48:35.523Z,5.90
2019-02-06T19:51:04.929Z,5.90
2019-02-06T19:53:34.100Z,5.80
2019-02-06T19:56:03.573Z,5.80
2019-02-06T19:58:33.413Z,5.80
2019-02-06T20:01:02.523Z,5.80
2019-02-06T20:03:31.795Z,5.80
2019-02-06T20:06:01.077Z,5.80
2019-02-06T20:08:30.358Z,5.80
2019-02-06T20:11:00.038Z,5.80
2019-02-06T20:13:29.458Z,5.70
2019-02-06T20:15:58.514Z,5.80
2019-02-06T20:18:27.991Z,5.70
2019-02-06T20:20:57.567Z,5.70
2019-02-06T20:23:26.765Z,5.70
2019-02-06T20:25:56.656Z,5.80
2019-02-06T20:28:27.059Z,5.80
2019-02-06T20:30:57.633Z,5.80
2019-02-06T20:33:26.983Z,5.80
2019-02-06T20:35:56.089Z,5.80
2019-02-06T20:38:26.191Z,5.80
2019-02-06T20:40:56.090Z,5.80
2019-02-06T20:43:25.346Z,5.80
2019-02-06T20:45:54.339Z,5.70
2019-02-06T20:48:25.287Z,5.80
2019-02-06T20:50:54.303Z,5.80
2019-02-06T20:53:24.209Z,5.70
2019-02-06T20:55:54.769Z,5.70
2019-02-06T20:58:24.055Z,5.70
2019-02-06T21:00:52.987Z,5.70
2019-02-06T21:03:22.135Z,5.70
2019-02-06T21:05:51.190Z,5.70
2019-02-06T21:08:20.108Z,5.70
2019-02-06T21:10:49.251Z,5.80
2019-02-06T21:13:19.056Z,5.80
2019-02-06T21:15:48.338Z,5.80
2019-02-06T21:18:17.316Z,5.80
2019-02-06T21:20:46.392Z,5.70
2019-02-06T21:23:15.385Z,5.80
2019-02-06T21:25:44.395Z,5.80
2019-02-06T21:28:13.472Z,5.70
2019-02-06T21:30:42.489Z,5.70
2019-02-06T21:33:11.645Z,5.70
2019-02-06T21:35:40.939Z,5.70
2019-02-06T21:38:09.837Z,5.70
2019-02-06T21:40:38.847Z,5.80
2019-02-06T21:43:08.070Z,5.70
2019-02-06T21:45:37.105Z,5.70
2019-02-06T21:48:07.573Z,5.60
2019-02-06T21:50:36.889Z,5.70
2019-02-06T21:53:05.987Z,5.70
2019-02-06T21:55:34.875Z,5.70
2019-02-06T21:58:04.012Z,5.70
2019-02-06T22:00:35.829Z,5.70
2019-02-06T22:03:05.728Z,5.70
2019-02-06T22:05:35.142Z,5.70
2019-02-06T22:08:04.296Z,5.70
2019-02-06T22:10:33.184Z,5.70
2019-02-06T22:13:02.175Z,5.60
2019-02-06T22:15:31.163Z,5.60
2019-02-06T22:18:00.319Z,5.60
2019-02-06T22:20:29.644Z,5.60
2019-02-06T22:22:58.633Z,5.60
2019-02-06T22:25:27.679Z,5.60
2019-02-06T22:27:56.706Z,5.60
2019-02-06T22:30:27.299Z,5.50
2019-02-06T22:32:56.382Z,5.50
2019-02-06T22:35:26.019Z,5.50
2019-02-06T22:37:55.174Z,5.50
2019-02-06T22:40:24.679Z,5.50
2019-02-06T22:42:53.779Z,5.50
2019-02-06T22:45:24.615Z,5.50
2019-02-06T22:47:54.003Z,5.50
2019-02-06T22:50:24.873Z,5.50
2019-02-06T22:52:53.911Z,5.40
2019-02-06T22:55:22.954Z,5.40
2019-02-06T22:57:52.164Z,5.50
2019-02-06T23:00:45.788Z,5.50
2019-02-06T23:03:17.474Z,5.40
2019-02-06T23:05:46.402Z,5.40
2019-02-06T23:08:15.276Z,5.30
2019-02-06T23:10:44.350Z,5.40
2019-02-06T23:13:13.382Z,5.40
2019-02-06T23:15:42.435Z,5.40
2019-02-06T23:18:11.386Z,5.40
2019-02-06T23:20:41.006Z,5.40
2019-02-06T23:23:10.074Z,5.40
2019-02-06T23:25:39.071Z,5.40
2019-02-06T23:28:08.031Z,5.30
2019-02-06T23:30:37.120Z,5.40
2019-02-06T23:33:06.011Z,5.30
2019-02-06T23:35:34.850Z,5.30
2019-02-06T23:38:03.991Z,5.30
2019-02-06T23:40:32.831Z,5.30
2019-02-06T23:43:01.698Z,5.30
2019-02-06T23:45:30.686Z,5.20
2019-02-06T23:47:59.664Z,5.20
2019-02-06T23:50:28.657Z,5.20
2019-02-06T23:52:57.712Z,5.20
2019-02-06T23:55:26.691Z,5.30
2019-02-06T23:57:55.562Z,5.20
